World Is Not Enough — 9HZH8 — position and weather

sailwx.info

Track history (hours):
 
Tides and Currents Weather Stations Pressure Air Temp Water Temp Dewpoint Dewpoint Depression Visibility Wind Speed Wind Dir Waves Ship Positions

World Is Not Enough

Last reported at 2016-Aug-27 19:29 UTC. Time now 2016-Aug-28 10:28 UTC.
Position N 41°23' E 002°11'.

Length 40 m; draft 1.8 m.

Type: Pleasure craft. MMSI: 256636000.

Date/timePositionNaut miles runAvg speedWind from/ knotsBaromVisibWave heightAir tempDewpointWater temp
2016-Aug-27 19:29N 41°23' E 002°11'0 0.0
2016-Aug-27 18:16N 41°23' E 002°11'0 0.0
2016-Aug-27 16:15N 41°23' E 002°11'0 0.0
2016-Aug-27 15:19N 41°23' E 002°11'0 0.0
2016-Aug-27 13:15N 41°23' E 002°11'0 0.0
2016-Aug-27 01:33N 41°23' E 002°11'0 0.0
2016-Aug-27 00:31N 41°23' E 002°11'0 0.0
2016-Aug-26 13:32N 41°23' E 002°11'0 0.0
2016-Aug-26 12:33N 41°23' E 002°11'0 0.0
2016-Aug-26 11:32N 41°23' E 002°11'0 0.0
2016-Aug-26 06:07N 41°23' E 002°11'0 0.0
2016-Aug-26 01:12N 41°23' E 002°11'0 0.0
2016-Aug-26 00:24N 41°23' E 002°11'0 0.0
2016-Aug-25 23:33N 41°23' E 002°11'0 0.0
2016-Aug-25 22:27N 41°23' E 002°11'0 0.0
2016-Aug-25 21:20N 41°23' E 002°11'0 0.0
2016-Aug-25 20:32N 41°23' E 002°11'0 0.0
2016-Aug-25 18:32N 41°23' E 002°11'27 1.9
2016-Aug-25 04:13N 40°56' E 002°13'912.2
2016-Aug-25 03:31N 40°47' E 002°14'1211.8
2016-Aug-25 02:33N 40°36' E 002°15'1211.7
2016-Aug-25 01:33N 40°24' E 002°15'1211.9
2016-Aug-25 00:33N 40°12' E 002°15'1212.4
2016-Aug-24 23:33N 39°60' E 002°15'1312.5
2016-Aug-24 22:33N 39°47' E 002°16'1312.3
2016-Aug-24 21:28N 39°34' E 002°18'1111.9
2016-Aug-24 20:33N 39°27' E 002°29'10 9.9
2016-Aug-24 19:33N 39°33' E 002°39'0 0.0
2016-Aug-24 18:33N 39°33' E 002°39'0 0.0
2016-Aug-24 17:33N 39°33' E 002°39'0 0.0
2016-Aug-24 16:33N 39°33' E 002°39'0 0.0
2016-Aug-24 15:33N 39°33' E 002°39'1 0.6
2016-Aug-24 14:33N 39°33' E 002°39'1 0.6
2016-Aug-24 13:33N 39°34' E 002°38'1 0.6
2016-Aug-24 12:33N 39°34' E 002°39'1 1.2
2016-Aug-24 11:33N 39°33' E 002°39'1010.4
2016-Aug-24 10:33N 39°29' E 002°26'11 0.7
2016-Aug-23 18:28N 39°40' E 002°27'1111.8
2016-Aug-23 17:33N 39°47' E 002°38'1212.3
2016-Aug-23 16:33N 39°53' E 002°51'19 9.0
2016-Aug-23 14:29N 39°51' E 003°15'31 9.3
2016-Aug-23 11:11N 39°20' E 003°12'811.9
2016-Aug-23 10:30N 39°16' E 003°04'1111.7
2016-Aug-23 09:33N 39°19' E 002°50'1111.5
2016-Aug-23 08:33N 39°28' E 002°41'6 5.5
2016-Aug-23 07:33N 39°34' E 002°39'0 0.0
2016-Aug-23 06:33N 39°34' E 002°39'0 0.0
2016-Aug-23 05:33N 39°34' E 002°39'0 0.0
2016-Aug-23 04:33N 39°34' E 002°39'0 0.0
2016-Aug-23 03:33N 39°34' E 002°39'0 0.0
2016-Aug-23 02:33N 39°34' E 002°39'0 0.0
2016-Aug-23 01:33N 39°34' E 002°39'0 0.0
2016-Aug-23 00:13N 39°34' E 002°39'0 0.0
2016-Aug-22 23:33N 39°34' E 002°39'0 0.0
2016-Aug-22 22:33N 39°34' E 002°39'0 0.0
2016-Aug-22 21:33N 39°34' E 002°39'0 0.0
2016-Aug-22 20:33N 39°34' E 002°39'0 0.0
2016-Aug-22 19:33N 39°34' E 002°39'0 0.0
2016-Aug-22 18:33N 39°34' E 002°39'5 4.9
2016-Aug-22 17:33N 39°29' E 002°41'1211.7
2016-Aug-22 16:33N 39°19' E 002°48'1211.6
2016-Aug-22 15:32N 39°08' E 002°55'2 1.8
2016-Aug-22 14:33N 39°09' E 002°57'1 1.1
2016-Aug-22 13:33N 39°10' E 002°55'1110.9
2016-Aug-22 12:33N 39°19' E 002°49'1312.9
2016-Aug-22 11:33N 39°31' E 002°41'3 3.1
2016-Aug-22 10:33N 39°34' E 002°39'0 0.0
2016-Aug-22 09:33N 39°34' E 002°39'0 0.0
2016-Aug-22 08:33N 39°34' E 002°39'0 0.1
2016-Aug-22 07:33N 39°34' E 002°39'0 0.0
2016-Aug-22 06:33N 39°34' E 002°39'0 0.0
2016-Aug-22 05:33N 39°34' E 002°39'0 0.0
2016-Aug-22 04:33N 39°34' E 002°39'0 0.0
2016-Aug-22 03:33N 39°34' E 002°39'0 0.0
2016-Aug-22 02:33N 39°34' E 002°39'0 0.0
2016-Aug-22 01:33N 39°34' E 002°39'0 0.0
2016-Aug-22 00:33N 39°34' E 002°39'0 0.0
2016-Aug-21 23:33N 39°34' E 002°39'0 0.0
2016-Aug-21 22:33N 39°34' E 002°39'0 0.0
2016-Aug-21 21:33N 39°34' E 002°39'0 0.0
2016-Aug-21 20:33N 39°34' E 002°39'0 0.1
2016-Aug-21 19:33N 39°34' E 002°39'0 0.0
2016-Aug-21 18:33N 39°34' E 002°39'0 0.0
2016-Aug-21 17:33N 39°34' E 002°39'7 7.3
2016-Aug-21 16:33N 39°27' E 002°44'9 9.3
2016-Aug-21 15:33N 39°26' E 002°32'8 7.5
2016-Aug-21 14:30N 39°32' E 002°25'0 0.0
2016-Aug-21 13:33N 39°32' E 002°25'0 0.0
2016-Aug-21 12:32N 39°32' E 002°25'0 0.0
2016-Aug-21 11:33N 39°32' E 002°25'1 0.6
2016-Aug-21 10:26N 39°31' E 002°24'7 7.6
2016-Aug-21 09:33N 39°28' E 002°32'6 6.4
2016-Aug-21 08:33N 39°33' E 002°36'0 0.0
2016-Aug-21 07:33N 39°33' E 002°36'0 0.0
2016-Aug-21 06:33N 39°33' E 002°36'0 0.0
2016-Aug-21 05:33N 39°33' E 002°36'0 0.0
2016-Aug-21 04:33N 39°33' E 002°36'0 0.0
2016-Aug-21 03:33N 39°33' E 002°36'0 0.0
2016-Aug-21 02:33N 39°33' E 002°36'0 0.0
2016-Aug-21 01:33N 39°33' E 002°36'0 0.0
2016-Aug-21 00:33N 39°33' E 002°36'0 0.0
2016-Aug-20 23:33N 39°33' E 002°36'0 0.0
2016-Aug-20 22:33N 39°33' E 002°36'2 1.7
2016-Aug-20 21:33N 39°32' E 002°35'0 0.0
2016-Aug-20 20:33N 39°32' E 002°35'0 0.3
2016-Aug-20 19:33N 39°32' E 002°34'1211.6
2016-Aug-20 18:33N 39°23' E 002°25'1212.2
2016-Aug-20 17:33N 39°15' E 002°13'1212.0
2016-Aug-20 16:33N 39°08' E 001°60'1212.3
2016-Aug-20 15:33N 39°01' E 001°47'1615.3
2016-Aug-20 14:31N 38°51' E 001°31'7 7.3
2016-Aug-20 13:31N 38°45' E 001°26'0 0.0
2016-Aug-20 10:12N 38°45' E 001°26'0 0.0
2016-Aug-20 09:33N 38°45' E 001°26'0 0.1
2016-Aug-20 08:30N 38°45' E 001°26'1 0.4
2016-Aug-20 05:32N 38°46' E 001°26'0 0.0
2016-Aug-20 04:32N 38°46' E 001°26'0 0.0
2016-Aug-20 03:33N 38°46' E 001°26'0 0.0
2016-Aug-20 02:32N 38°46' E 001°26'0 0.0
2016-Aug-20 01:33N 38°46' E 001°26'0 0.0
2016-Aug-20 00:33N 38°46' E 001°26'0 0.0
2016-Aug-19 23:33N 38°46' E 001°26'0 0.0
2016-Aug-19 22:27N 38°46' E 001°26'0 0.0
2016-Aug-19 21:26N 38°46' E 001°26'0 0.0
2016-Aug-19 20:24N 38°46' E 001°26'0 0.0
2016-Aug-19 19:33N 38°46' E 001°26'0 0.0
2016-Aug-19 18:33N 38°46' E 001°26'0 0.0
2016-Aug-19 17:32N 38°46' E 001°26'1 0.5
2016-Aug-19 16:30N 38°46' E 001°26'0 0.0
2016-Aug-19 15:30N 38°46' E 001°26'0 0.0
2016-Aug-19 14:32N 38°46' E 001°26'0 0.0
2016-Aug-19 13:17N 38°46' E 001°26'19 3.7
2016-Aug-19 08:04N 39°05' E 001°22'3 5.8
2016-Aug-19 07:33N 39°05' E 001°26'0 0.0
2016-Aug-19 06:33N 39°05' E 001°26'0 0.0
2016-Aug-19 05:33N 39°05' E 001°26'0 0.0
2016-Aug-19 04:33N 39°05' E 001°26'0 0.0
2016-Aug-19 03:33N 39°05' E 001°26'0 0.0
2016-Aug-19 02:33N 39°05' E 001°26'0 0.0
2016-Aug-19 01:32N 39°05' E 001°26'0 0.0
2016-Aug-19 00:33N 39°05' E 001°26'0 0.0
2016-Aug-18 23:33N 39°05' E 001°26'0 0.0
2016-Aug-18 22:32N 39°05' E 001°26'0 0.0
2016-Aug-18 21:33N 39°05' E 001°26'0 0.0
2016-Aug-18 20:33N 39°05' E 001°26'0 0.0
2016-Aug-18 19:32N 39°05' E 001°26'0 0.0
2016-Aug-18 18:33N 39°05' E 001°26'0 0.0
2016-Aug-18 17:33N 39°05' E 001°26'0 0.0
2016-Aug-18 16:33N 39°05' E 001°26'0 0.0
2016-Aug-18 15:33N 39°05' E 001°26'0 0.0
2016-Aug-18 14:33N 39°05' E 001°26'0 0.0
2016-Aug-18 13:31N 39°05' E 001°26'7 7.3
2016-Aug-18 12:33N 39°06' E 001°35'9 8.9
2016-Aug-18 11:33N 38°58' E 001°32'11 9.9
2016-Aug-18 10:29N 38°49' E 001°25'7 7.6
2016-Aug-18 09:33N 38°43' E 001°31'2 0.7
2016-Aug-18 06:12N 38°41' E 001°32'0 0.0
2016-Aug-18 05:34N 38°41' E 001°32'0 0.0
2016-Aug-18 04:16N 38°41' E 001°32'0 0.0
2016-Aug-18 03:33N 38°41' E 001°32'0 0.0
2016-Aug-18 02:33N 38°41' E 001°32'0 0.1
2016-Aug-18 01:31N 38°41' E 001°32'0 0.0
2016-Aug-18 00:33N 38°41' E 001°32'0 0.1
2016-Aug-17 23:27N 38°41' E 001°32'0 0.0
2016-Aug-17 22:31N 38°41' E 001°32'0 0.0
2016-Aug-17 21:28N 38°41' E 001°32'  
Track history (hours):
 
Tides and Currents Weather Stations Pressure Air Temp Water Temp Dewpoint Dewpoint Depression Visibility Wind Speed Wind Dir Waves Ship Positions

World Is Not Enough

Last reported at 2016-Aug-27 19:29 UTC. Time now 2016-Aug-28 10:28 UTC.
Position N 41°23' E 002°11'.

Length 40 m; draft 1.8 m.

Type: Pleasure craft. MMSI: 256636000.

Date/timePositionNaut miles runAvg speedWind from/ knotsBaromVisibWave heightAir tempDewpointWater temp
2016-Aug-27 19:29N 41°23' E 002°11'0 0.0
2016-Aug-27 18:16N 41°23' E 002°11'0 0.0
2016-Aug-27 16:15N 41°23' E 002°11'0 0.0
2016-Aug-27 15:19N 41°23' E 002°11'0 0.0
2016-Aug-27 13:15N 41°23' E 002°11'0 0.0
2016-Aug-27 01:33N 41°23' E 002°11'0 0.0
2016-Aug-27 00:31N 41°23' E 002°11'0 0.0
2016-Aug-26 13:32N 41°23' E 002°11'0 0.0
2016-Aug-26 12:33N 41°23' E 002°11'0 0.0
2016-Aug-26 11:32N 41°23' E 002°11'0 0.0
2016-Aug-26 06:07N 41°23' E 002°11'0 0.0
2016-Aug-26 01:12N 41°23' E 002°11'0 0.0
2016-Aug-26 00:24N 41°23' E 002°11'0 0.0
2016-Aug-25 23:33N 41°23' E 002°11'0 0.0
2016-Aug-25 22:27N 41°23' E 002°11'0 0.0
2016-Aug-25 21:20N 41°23' E 002°11'0 0.0
2016-Aug-25 20:32N 41°23' E 002°11'0 0.0
2016-Aug-25 18:32N 41°23' E 002°11'27 1.9
2016-Aug-25 04:13N 40°56' E 002°13'912.2
2016-Aug-25 03:31N 40°47' E 002°14'1211.8
2016-Aug-25 02:33N 40°36' E 002°15'1211.7
2016-Aug-25 01:33N 40°24' E 002°15'1211.9
2016-Aug-25 00:33N 40°12' E 002°15'1212.4
2016-Aug-24 23:33N 39°60' E 002°15'1312.5
2016-Aug-24 22:33N 39°47' E 002°16'1312.3
2016-Aug-24 21:28N 39°34' E 002°18'1111.9
2016-Aug-24 20:33N 39°27' E 002°29'10 9.9
2016-Aug-24 19:33N 39°33' E 002°39'0 0.0
2016-Aug-24 18:33N 39°33' E 002°39'0 0.0
2016-Aug-24 17:33N 39°33' E 002°39'0 0.0
2016-Aug-24 16:33N 39°33' E 002°39'0 0.0
2016-Aug-24 15:33N 39°33' E 002°39'1 0.6
2016-Aug-24 14:33N 39°33' E 002°39'1 0.6
2016-Aug-24 13:33N 39°34' E 002°38'1 0.6
2016-Aug-24 12:33N 39°34' E 002°39'1 1.2
2016-Aug-24 11:33N 39°33' E 002°39'1010.4
2016-Aug-24 10:33N 39°29' E 002°26'11 0.7
2016-Aug-23 18:28N 39°40' E 002°27'1111.8
2016-Aug-23 17:33N 39°47' E 002°38'1212.3
2016-Aug-23 16:33N 39°53' E 002°51'19 9.0
2016-Aug-23 14:29N 39°51' E 003°15'31 9.3
2016-Aug-23 11:11N 39°20' E 003°12'811.9
2016-Aug-23 10:30N 39°16' E 003°04'1111.7
2016-Aug-23 09:33N 39°19' E 002°50'1111.5
2016-Aug-23 08:33N 39°28' E 002°41'6 5.5
2016-Aug-23 07:33N 39°34' E 002°39'0 0.0
2016-Aug-23 06:33N 39°34' E 002°39'0 0.0
2016-Aug-23 05:33N 39°34' E 002°39'0 0.0
2016-Aug-23 04:33N 39°34' E 002°39'0 0.0
2016-Aug-23 03:33N 39°34' E 002°39'0 0.0
2016-Aug-23 02:33N 39°34' E 002°39'0 0.0
2016-Aug-23 01:33N 39°34' E 002°39'0 0.0
2016-Aug-23 00:13N 39°34' E 002°39'0 0.0
2016-Aug-22 23:33N 39°34' E 002°39'0 0.0
2016-Aug-22 22:33N 39°34' E 002°39'0 0.0
2016-Aug-22 21:33N 39°34' E 002°39'0 0.0
2016-Aug-22 20:33N 39°34' E 002°39'0 0.0
2016-Aug-22 19:33N 39°34' E 002°39'0 0.0
2016-Aug-22 18:33N 39°34' E 002°39'5 4.9
2016-Aug-22 17:33N 39°29' E 002°41'1211.7
2016-Aug-22 16:33N 39°19' E 002°48'1211.6
2016-Aug-22 15:32N 39°08' E 002°55'2 1.8
2016-Aug-22 14:33N 39°09' E 002°57'1 1.1
2016-Aug-22 13:33N 39°10' E 002°55'1110.9
2016-Aug-22 12:33N 39°19' E 002°49'1312.9
2016-Aug-22 11:33N 39°31' E 002°41'3 3.1
2016-Aug-22 10:33N 39°34' E 002°39'0 0.0
2016-Aug-22 09:33N 39°34' E 002°39'0 0.0
2016-Aug-22 08:33N 39°34' E 002°39'0 0.1
2016-Aug-22 07:33N 39°34' E 002°39'0 0.0
2016-Aug-22 06:33N 39°34' E 002°39'0 0.0
2016-Aug-22 05:33N 39°34' E 002°39'0 0.0
2016-Aug-22 04:33N 39°34' E 002°39'0 0.0
2016-Aug-22 03:33N 39°34' E 002°39'0 0.0
2016-Aug-22 02:33N 39°34' E 002°39'0 0.0
2016-Aug-22 01:33N 39°34' E 002°39'0 0.0
2016-Aug-22 00:33N 39°34' E 002°39'0 0.0
2016-Aug-21 23:33N 39°34' E 002°39'0 0.0
2016-Aug-21 22:33N 39°34' E 002°39'0 0.0
2016-Aug-21 21:33N 39°34' E 002°39'0 0.0
2016-Aug-21 20:33N 39°34' E 002°39'0 0.1
2016-Aug-21 19:33N 39°34' E 002°39'0 0.0
2016-Aug-21 18:33N 39°34' E 002°39'0 0.0
2016-Aug-21 17:33N 39°34' E 002°39'7 7.3
2016-Aug-21 16:33N 39°27' E 002°44'9 9.3
2016-Aug-21 15:33N 39°26' E 002°32'8 7.5
2016-Aug-21 14:30N 39°32' E 002°25'0 0.0
2016-Aug-21 13:33N 39°32' E 002°25'0 0.0
2016-Aug-21 12:32N 39°32' E 002°25'0 0.0
2016-Aug-21 11:33N 39°32' E 002°25'1 0.6
2016-Aug-21 10:26N 39°31' E 002°24'7 7.6
2016-Aug-21 09:33N 39°28' E 002°32'6 6.4
2016-Aug-21 08:33N 39°33' E 002°36'0 0.0
2016-Aug-21 07:33N 39°33' E 002°36'0 0.0
2016-Aug-21 06:33N 39°33' E 002°36'0 0.0
2016-Aug-21 05:33N 39°33' E 002°36'0 0.0
2016-Aug-21 04:33N 39°33' E 002°36'0 0.0
2016-Aug-21 03:33N 39°33' E 002°36'0 0.0
2016-Aug-21 02:33N 39°33' E 002°36'0 0.0
2016-Aug-21 01:33N 39°33' E 002°36'0 0.0
2016-Aug-21 00:33N 39°33' E 002°36'0 0.0
2016-Aug-20 23:33N 39°33' E 002°36'0 0.0
2016-Aug-20 22:33N 39°33' E 002°36'2 1.7
2016-Aug-20 21:33N 39°32' E 002°35'0 0.0
2016-Aug-20 20:33N 39°32' E 002°35'0 0.3
2016-Aug-20 19:33N 39°32' E 002°34'1211.6
2016-Aug-20 18:33N 39°23' E 002°25'1212.2
2016-Aug-20 17:33N 39°15' E 002°13'1212.0
2016-Aug-20 16:33N 39°08' E 001°60'1212.3
2016-Aug-20 15:33N 39°01' E 001°47'1615.3
2016-Aug-20 14:31N 38°51' E 001°31'7 7.3
2016-Aug-20 13:31N 38°45' E 001°26'0 0.0
2016-Aug-20 10:12N 38°45' E 001°26'0 0.0
2016-Aug-20 09:33N 38°45' E 001°26'0 0.1
2016-Aug-20 08:30N 38°45' E 001°26'1 0.4
2016-Aug-20 05:32N 38°46' E 001°26'0 0.0
2016-Aug-20 04:32N 38°46' E 001°26'0 0.0
2016-Aug-20 03:33N 38°46' E 001°26'0 0.0
2016-Aug-20 02:32N 38°46' E 001°26'0 0.0
2016-Aug-20 01:33N 38°46' E 001°26'0 0.0
2016-Aug-20 00:33N 38°46' E 001°26'0 0.0
2016-Aug-19 23:33N 38°46' E 001°26'0 0.0
2016-Aug-19 22:27N 38°46' E 001°26'0 0.0
2016-Aug-19 21:26N 38°46' E 001°26'0 0.0
2016-Aug-19 20:24N 38°46' E 001°26'0 0.0
2016-Aug-19 19:33N 38°46' E 001°26'0 0.0
2016-Aug-19 18:33N 38°46' E 001°26'0 0.0
2016-Aug-19 17:32N 38°46' E 001°26'1 0.5
2016-Aug-19 16:30N 38°46' E 001°26'0 0.0
2016-Aug-19 15:30N 38°46' E 001°26'0 0.0
2016-Aug-19 14:32N 38°46' E 001°26'0 0.0
2016-Aug-19 13:17N 38°46' E 001°26'19 3.7
2016-Aug-19 08:04N 39°05' E 001°22'3 5.8
2016-Aug-19 07:33N 39°05' E 001°26'0 0.0
2016-Aug-19 06:33N 39°05' E 001°26'0 0.0
2016-Aug-19 05:33N 39°05' E 001°26'0 0.0
2016-Aug-19 04:33N 39°05' E 001°26'0 0.0
2016-Aug-19 03:33N 39°05' E 001°26'0 0.0
2016-Aug-19 02:33N 39°05' E 001°26'0 0.0
2016-Aug-19 01:32N 39°05' E 001°26'0 0.0
2016-Aug-19 00:33N 39°05' E 001°26'0 0.0
2016-Aug-18 23:33N 39°05' E 001°26'0 0.0
2016-Aug-18 22:32N 39°05' E 001°26'0 0.0
2016-Aug-18 21:33N 39°05' E 001°26'0 0.0
2016-Aug-18 20:33N 39°05' E 001°26'0 0.0
2016-Aug-18 19:32N 39°05' E 001°26'0 0.0
2016-Aug-18 18:33N 39°05' E 001°26'0 0.0
2016-Aug-18 17:33N 39°05' E 001°26'0 0.0
2016-Aug-18 16:33N 39°05' E 001°26'0 0.0
2016-Aug-18 15:33N 39°05' E 001°26'0 0.0
2016-Aug-18 14:33N 39°05' E 001°26'0 0.0
2016-Aug-18 13:31N 39°05' E 001°26'7 7.3
2016-Aug-18 12:33N 39°06' E 001°35'9 8.9
2016-Aug-18 11:33N 38°58' E 001°32'11 9.9
2016-Aug-18 10:29N 38°49' E 001°25'7 7.6
2016-Aug-18 09:33N 38°43' E 001°31'2 0.7
2016-Aug-18 06:12N 38°41' E 001°32'0 0.0
2016-Aug-18 05:34N 38°41' E 001°32'0 0.0
2016-Aug-18 04:16N 38°41' E 001°32'0 0.0
2016-Aug-18 03:33N 38°41' E 001°32'0 0.0
2016-Aug-18 02:33N 38°41' E 001°32'0 0.1
2016-Aug-18 01:31N 38°41' E 001°32'0 0.0
2016-Aug-18 00:33N 38°41' E 001°32'0 0.1
2016-Aug-17 23:27N 38°41' E 001°32'0 0.0
2016-Aug-17 22:31N 38°41' E 001°32'0 0.0
2016-Aug-17 21:28N 38°41' E 001°32'  

Dump ship's entire track history